Time;durP1;ratioP1;P1;durP2;ratioP2;P2;SDS_P1;SDS_P2;PMS_P1;PMS_P2;Temp;Humidity;BMP_temperature;BMP_pressure;BME280_temperature;BME280_humidity;BME280_pressure;Samples;Min_cycle;Max_cycle;Signal;HPM_P1;HPM_P2
2022/05/21 00:00:14;;;;;;;0.10;0.10;;;;;;;;;;5113529;28;20032;-80
2022/05/21 00:02:41;;;;;;;0.10;0.10;;;;;;;;;;5113951;28;20156;-80
2022/05/21 00:05:07;;;;;;;0.20;0.20;;;;;;;;;;5113464;28;20020;-80
2022/05/21 00:07:33;;;;;;;0.10;0.10;;;;;;;;;;5113799;28;20054;-79
2022/05/21 00:10:00;;;;;;;0.10;0.10;;;;;;;;;;5113708;28;20140;-79
2022/05/21 00:12:26;;;;;;;0.10;0.10;;;;;;;;;;5113878;28;20517;-80
2022/05/21 00:14:52;;;;;;;0.10;0.10;;;;;;;;;;5113219;28;20043;-80
2022/05/21 00:17:19;;;;;;;0.10;0.10;;;;;;;;;;5094937;28;20015;-79
2022/05/21 00:19:45;;;;;;;0.00;0.00;;;;;;;;;;5095242;28;20490;-80
2022/05/21 00:22:11;;;;;;;0.10;0.10;;;;;;;;;;5094962;28;20022;-80
2022/05/21 00:24:37;;;;;;;0.10;0.10;;;;;;;;;;5095160;28;20031;-80
2022/05/21 00:27:03;;;;;;;0.10;0.10;;;;;;;;;;5094929;28;20027;-80
2022/05/21 00:29:29;;;;;;;0.10;0.10;;;;;;;;;;5113800;28;20028;-81
2022/05/21 00:31:56;;;;;;;0.10;0.10;;;;;;;;;;5113596;28;20023;-80
2022/05/21 00:34:22;;;;;;;0.10;0.10;;;;;;;;;;5112841;28;20535;-81
2022/05/21 00:36:49;;;;;;;0.10;0.10;;;;;;;;;;5095011;28;20027;-82
2022/05/21 00:39:15;;;;;;;0.10;0.10;;;;;;;;;;5094650;28;20475;-81
2022/05/21 00:41:41;;;;;;;0.20;0.20;;;;;;;;;;5094800;28;20034;-81
2022/05/21 00:44:07;;;;;;;0.10;0.10;;;;;;;;;;5112916;28;20024;-81
2022/05/21 00:46:35;;;;;;;0.10;0.10;;;;;;;;;;5113265;28;20031;-81
2022/05/21 00:49:23;;;;;;;0.10;0.10;;;;;;;;;;5094537;28;20115;-81
2022/05/21 00:51:53;;;;;;;0.10;0.10;;;;;;;;;;5112943;28;20028;-80
2022/05/21 00:54:21;;;;;;;0.10;0.10;;;;;;;;;;5112611;28;20402;-81
2022/05/21 00:56:51;;;;;;;0.10;0.10;;;;;;;;;;5112898;28;20016;-81
2022/05/21 01:02:04;;;;;;;0.10;0.10;;;;;;;;;;5112851;28;20464;-81
2022/05/21 01:04:31;;;;;;;0.10;0.10;;;;;;;;;;5112420;28;20525;-80
2022/05/21 01:06:59;;;;;;;0.00;0.00;;;;;;;;;;5113009;28;20031;-81
2022/05/21 01:09:25;;;;;;;0.10;0.10;;;;;;;;;;5094709;28;20024;-82
2022/05/21 01:11:51;;;;;;;0.00;0.00;;;;;;;;;;5094637;28;20407;-81
2022/05/21 01:14:20;;;;;;;0.10;0.10;;;;;;;;;;5112015;28;20032;-81
2022/05/21 01:16:46;;;;;;;0.10;0.10;;;;;;;;;;5112577;28;20057;-80
2022/05/21 01:19:13;;;;;;;0.10;0.10;;;;;;;;;;5093790;28;20019;-80
2022/05/21 01:21:39;;;;;;;0.00;0.00;;;;;;;;;;5112559;28;20027;-81
2022/05/21 01:24:05;;;;;;;0.10;0.10;;;;;;;;;;5094069;28;20015;-82
2022/05/21 01:26:32;;;;;;;0.10;0.10;;;;;;;;;;5112364;28;20069;-81
2022/05/21 01:28:58;;;;;;;0.10;0.10;;;;;;;;;;5112573;28;20058;-80
2022/05/21 01:31:24;;;;;;;0.10;0.10;;;;;;;;;;5111903;28;20531;-80
2022/05/21 01:33:50;;;;;;;0.00;0.00;;;;;;;;;;5112130;28;20039;-82
2022/05/21 01:36:17;;;;;;;0.10;0.10;;;;;;;;;;5111920;28;20032;-82
2022/05/21 01:38:45;;;;;;;0.10;0.10;;;;;;;;;;5093884;28;20034;-81
2022/05/21 01:41:12;;;;;;;0.10;0.10;;;;;;;;;;5111713;28;20026;-81
2022/05/21 01:46:23;;;;;;;0.00;0.00;;;;;;;;;;5112700;28;20093;-81
2022/05/21 01:48:49;;;;;;;0.10;0.10;;;;;;;;;;5111886;28;20027;-81
2022/05/21 01:51:15;;;;;;;0.10;0.10;;;;;;;;;;5093427;28;20019;-82
2022/05/21 01:53:42;;;;;;;0.10;0.10;;;;;;;;;;5111770;28;20364;-81
2022/05/21 01:56:09;;;;;;;0.10;0.10;;;;;;;;;;5111531;28;20027;-82
2022/05/21 01:58:35;;;;;;;0.00;0.00;;;;;;;;;;5093495;28;20483;-81
2022/05/21 02:01:01;;;;;;;0.10;0.10;;;;;;;;;;5093133;28;20402;-82
2022/05/21 02:03:27;;;;;;;0.10;0.10;;;;;;;;;;5112143;28;20027;-81
2022/05/21 02:05:53;;;;;;;0.10;0.10;;;;;;;;;;5111753;28;20058;-82
2022/05/21 02:08:19;;;;;;;0.10;0.10;;;;;;;;;;5111621;28;20027;-82
2022/05/21 02:10:46;;;;;;;0.10;0.10;;;;;;;;;;5111773;28;20024;-83
2022/05/21 02:13:19;;;;;;;0.10;0.10;;;;;;;;;;5093069;28;20067;-82
2022/05/21 02:15:45;;;;;;;0.00;0.00;;;;;;;;;;5111854;28;20422;-83
2022/05/21 02:18:12;;;;;;;0.10;0.10;;;;;;;;;;5093128;28;20078;-83
2022/05/21 02:20:38;;;;;;;0.05;0.05;;;;;;;;;;5111581;28;20021;-83
2022/05/21 02:23:04;;;;;;;0.10;0.10;;;;;;;;;;5092973;28;20024;-83
2022/05/21 02:25:30;;;;;;;0.10;0.10;;;;;;;;;;5111426;28;20030;-80
2022/05/21 02:27:56;;;;;;;0.10;0.10;;;;;;;;;;5093543;28;20031;-82
2022/05/21 02:30:22;;;;;;;0.10;0.10;;;;;;;;;;5092991;28;20016;-82
2022/05/21 02:32:48;;;;;;;0.10;0.10;;;;;;;;;;5093161;28;20023;-82
2022/05/21 02:35:15;;;;;;;0.10;0.10;;;;;;;;;;5092923;28;20112;-82
2022/05/21 02:40:25;;;;;;;0.10;0.10;;;;;;;;;;5111820;28;20035;-82
2022/05/21 02:42:51;;;;;;;0.10;0.10;;;;;;;;;;5111359;28;20058;-81
2022/05/21 02:45:22;;;;;;;0.10;0.10;;;;;;;;;;5092929;28;20047;-82
2022/05/21 02:47:49;;;;;;;0.10;0.10;;;;;;;;;;5093095;28;20023;-81
2022/05/21 02:50:16;;;;;;;0.10;0.10;;;;;;;;;;5092771;28;20051;-81
2022/05/21 02:52:42;;;;;;;0.10;0.10;;;;;;;;;;5093114;28;20115;-81
2022/05/21 02:55:09;;;;;;;0.08;0.08;;;;;;;;;;5110976;28;20054;-81
2022/05/21 02:57:35;;;;;;;0.10;0.10;;;;;;;;;;5096207;28;20030;-82
2022/05/21 03:00:04;;;;;;;0.00;0.00;;;;;;;;;;5096639;28;20032;-81
2022/05/21 03:02:31;;;;;;;0.10;0.10;;;;;;;;;;5115001;28;20027;-80
2022/05/21 03:04:57;;;;;;;0.10;0.10;;;;;;;;;;5096932;28;20398;-80
2022/05/21 03:07:23;;;;;;;0.10;0.10;;;;;;;;;;5096313;28;20096;-79
2022/05/21 03:12:34;;;;;;;0.00;0.00;;;;;;;;;;5115038;28;20058;-81
2022/05/21 03:15:00;;;;;;;0.10;0.10;;;;;;;;;;5114441;28;20039;-79
2022/05/21 03:17:27;;;;;;;0.10;0.10;;;;;;;;;;5115321;28;20020;-80
2022/05/21 03:19:53;;;;;;;0.10;0.10;;;;;;;;;;5114766;28;20023;-82
2022/05/21 03:22:19;;;;;;;0.10;0.10;;;;;;;;;;5114570;28;20027;-82
2022/05/21 03:24:45;;;;;;;0.10;0.10;;;;;;;;;;5096349;28;20096;-81
2022/05/21 03:27:11;;;;;;;0.10;0.10;;;;;;;;;;5114470;28;20024;-81
2022/05/21 03:29:37;;;;;;;0.10;0.10;;;;;;;;;;5096295;28;20035;-82
2022/05/21 03:32:04;;;;;;;0.10;0.10;;;;;;;;;;5096211;28;20440;-81
2022/05/21 03:34:30;;;;;;;0.10;0.10;;;;;;;;;;5096020;28;20035;-78
2022/05/21 03:36:57;;;;;;;0.10;0.10;;;;;;;;;;5114743;28;20505;-82
2022/05/21 03:39:23;;;;;;;0.08;0.08;;;;;;;;;;5114311;28;20024;-82
2022/05/21 03:41:49;;;;;;;0.10;0.10;;;;;;;;;;5114453;28;20080;-82
2022/05/21 03:44:15;;;;;;;0.10;0.10;;;;;;;;;;5095816;28;20024;-81
2022/05/21 03:46:41;;;;;;;0.10;0.10;;;;;;;;;;5114285;28;20102;-81
2022/05/21 03:49:08;;;;;;;0.10;0.10;;;;;;;;;;5095644;28;20031;-81
2022/05/21 03:51:34;;;;;;;0.10;0.10;;;;;;;;;;5114206;28;20028;-82
2022/05/21 03:54:00;;;;;;;0.10;0.10;;;;;;;;;;5114073;28;20032;-80
2022/05/21 03:56:26;;;;;;;0.10;0.10;;;;;;;;;;5114387;28;20399;-81
2022/05/21 03:58:52;;;;;;;0.03;0.03;;;;;;;;;;5114014;28;20020;-82
2022/05/21 04:01:18;;;;;;;0.08;0.08;;;;;;;;;;5113715;28;20034;-81
2022/05/21 04:03:44;;;;;;;0.10;0.10;;;;;;;;;;5114050;28;20106;-81
2022/05/21 04:06:11;;;;;;;0.10;0.10;;;;;;;;;;5113667;28;20481;-82
2022/05/21 04:08:37;;;;;;;0.10;0.10;;;;;;;;;;5113538;28;20471;-82
2022/05/21 04:11:04;;;;;;;0.10;0.10;;;;;;;;;;5113587;28;20028;-82
2022/05/21 04:13:30;;;;;;;0.10;0.10;;;;;;;;;;5113826;28;20410;-79
2022/05/21 04:15:56;;;;;;;0.10;0.10;;;;;;;;;;5095678;28;20034;-81
2022/05/21 04:18:22;;;;;;;0.10;0.10;;;;;;;;;;5113426;28;20031;-81
2022/05/21 04:20:48;;;;;;;0.10;0.10;;;;;;;;;;5113703;28;20034;-81
2022/05/21 04:23:14;;;;;;;0.10;0.10;;;;;;;;;;5095160;28;20019;-81
2022/05/21 04:25:40;;;;;;;0.10;0.10;;;;;;;;;;5113563;28;20148;-82
2022/05/21 04:28:06;;;;;;;0.10;0.10;;;;;;;;;;5113351;28;20028;-83
2022/05/21 04:30:35;;;;;;;0.10;0.10;;;;;;;;;;5113713;28;20068;-84
2022/05/21 04:33:01;;;;;;;0.05;0.05;;;;;;;;;;5113496;28;20096;-83
2022/05/21 04:38:12;;;;;;;0.10;0.10;;;;;;;;;;5113430;28;20031;-83
2022/05/21 04:40:38;;;;;;;0.10;0.10;;;;;;;;;;5113407;28;20030;-83
2022/05/21 04:43:04;;;;;;;0.10;0.10;;;;;;;;;;5113057;28;20023;-82
2022/05/21 04:45:30;;;;;;;0.10;0.10;;;;;;;;;;5113145;28;20035;-80
2022/05/21 04:47:56;;;;;;;0.10;0.10;;;;;;;;;;5113491;28;20099;-82
2022/05/21 04:50:22;;;;;;;0.10;0.10;;;;;;;;;;5112857;28;20059;-81
2022/05/21 04:52:48;;;;;;;0.10;0.10;;;;;;;;;;5113034;28;20051;-81
2022/05/21 04:55:14;;;;;;;0.10;0.10;;;;;;;;;;5112585;28;20043;-81
2022/05/21 04:57:40;;;;;;;0.10;0.10;;;;;;;;;;5112935;28;20081;-82
2022/05/21 05:00:07;;;;;;;0.10;0.10;;;;;;;;;;5094259;28;20046;-83
2022/05/21 05:02:33;;;;;;;0.10;0.10;;;;;;;;;;5112853;28;20391;-82
2022/05/21 05:04:59;;;;;;;0.10;0.10;;;;;;;;;;5113029;28;20390;-82
2022/05/21 05:07:25;;;;;;;0.10;0.10;;;;;;;;;;5113049;28;20122;-83
2022/05/21 05:09:51;;;;;;;0.20;0.20;;;;;;;;;;5112631;28;20023;-83
2022/05/21 05:12:17;;;;;;;0.10;0.10;;;;;;;;;;5112415;28;20019;-82
2022/05/21 05:14:44;;;;;;;0.10;0.10;;;;;;;;;;5112181;28;20508;-82
2022/05/21 05:17:12;;;;;;;0.10;0.10;;;;;;;;;;5112193;28;20027;-80
2022/05/21 05:19:38;;;;;;;0.10;0.10;;;;;;;;;;5111839;28;20084;-81
2022/05/21 05:22:04;;;;;;;0.10;0.10;;;;;;;;;;5093910;28;20118;-81
2022/05/21 05:24:30;;;;;;;0.10;0.10;;;;;;;;;;5112450;28;20023;-80
2022/05/21 05:26:57;;;;;;;0.10;0.10;;;;;;;;;;5112642;28;20061;-82
2022/05/21 05:29:23;;;;;;;0.10;0.10;;;;;;;;;;5093782;28;20487;-82
2022/05/21 05:31:49;;;;;;;0.10;0.10;;;;;;;;;;5094022;28;20030;-81
2022/05/21 05:34:14;;;;;;;0.10;0.10;;;;;;;;;;5111918;28;20032;-80
2022/05/21 05:36:41;;;;;;;0.10;0.10;;;;;;;;;;5112132;28;20053;-81
2022/05/21 05:39:07;;;;;;;0.10;0.10;;;;;;;;;;5111881;28;20016;-81
2022/05/21 05:41:33;;;;;;;0.10;0.10;;;;;;;;;;5093685;28;20058;-81
2022/05/21 05:43:59;;;;;;;0.10;0.10;;;;;;;;;;5102106;27;20047;-81
2022/05/21 05:46:25;;;;;;;0.10;0.10;;;;;;;;;;5132316;27;20076;-81
2022/05/21 05:48:51;;;;;;;0.10;0.10;;;;;;;;;;5114122;27;20034;-80
2022/05/21 05:51:18;;;;;;;0.10;0.10;;;;;;;;;;5130719;27;20023;-82
2022/05/21 05:53:44;;;;;;;0.10;0.10;;;;;;;;;;5093488;28;20032;-81
2022/05/21 05:56:10;;;;;;;0.10;0.10;;;;;;;;;;5111603;28;20502;-81
2022/05/21 06:01:23;;;;;;;0.10;0.10;;;;;;;;;;5111735;28;20039;-82
2022/05/21 06:03:49;;;;;;;0.10;0.10;;;;;;;;;;5111346;28;20024;-82
2022/05/21 06:06:15;;;;;;;0.10;0.10;;;;;;;;;;5093496;28;20023;-82
2022/05/21 06:08:41;;;;;;;0.10;0.10;;;;;;;;;;5112091;27;20020;-80
2022/05/21 06:11:07;;;;;;;0.10;0.10;;;;;;;;;;5103696;28;20382;-82
2022/05/21 06:13:34;;;;;;;0.10;0.10;;;;;;;;;;5110933;28;20074;-82
2022/05/21 06:16:00;;;;;;;0.10;0.10;;;;;;;;;;5111791;28;20035;-80
2022/05/21 06:18:26;;;;;;;0.10;0.10;;;;;;;;;;5110496;28;20020;-81
2022/05/21 06:20:52;;;;;;;0.00;0.00;;;;;;;;;;5111467;28;20107;-80
2022/05/21 06:23:19;;;;;;;0.10;0.10;;;;;;;;;;5111160;28;20042;-80
2022/05/21 06:25:45;;;;;;;0.10;0.10;;;;;;;;;;5093605;28;20438;-81
2022/05/21 06:28:11;;;;;;;1.77;1.65;;;;;;;;;;5116368;28;20062;-81
2022/05/21 06:30:38;;;;;;;0.10;0.10;;;;;;;;;;5115375;27;20428;-81
2022/05/21 06:33:20;;;;;;;0.10;0.10;;;;;;;;;;5117739;27;20035;-81
2022/05/21 06:35:46;;;;;;;0.10;0.10;;;;;;;;;;5136163;27;20504;-82
2022/05/21 06:38:12;;;;;;;0.10;0.10;;;;;;;;;;5134919;27;20128;-79
2022/05/21 06:40:38;;;;;;;0.10;0.10;;;;;;;;;;5115785;28;20055;-81
2022/05/21 06:43:04;;;;;;;0.10;0.10;;;;;;;;;;5115495;28;20409;-82
2022/05/21 06:45:32;;;;;;;0.10;0.10;;;;;;;;;;5117042;27;20032;-83
2022/05/21 06:48:01;;;;;;;0.10;0.10;;;;;;;;;;5123893;27;20024;-82
2022/05/21 06:50:27;;;;;;;0.10;0.10;;;;;;;;;;5112646;27;20030;-82
2022/05/21 06:52:53;;;;;;;0.10;0.10;;;;;;;;;;5116272;27;20023;-82
2022/05/21 06:55:21;;;;;;;0.10;0.10;;;;;;;;;;5096874;28;20031;-80
2022/05/21 06:57:47;;;;;;;0.10;0.10;;;;;;;;;;5118262;27;20027;-82
2022/05/21 07:00:13;;;;;;;0.10;0.10;;;;;;;;;;5097921;28;20028;-81
2022/05/21 07:02:40;;;;;;;0.10;0.10;;;;;;;;;;5119942;27;20089;-81
2022/05/21 07:07:51;;;;;;;0.10;0.10;;;;;;;;;;5115006;28;20406;-79
2022/05/21 07:10:21;;;;;;;0.10;0.10;;;;;;;;;;5114428;28;20020;-80
2022/05/21 07:12:47;;;;;;;0.10;0.10;;;;;;;;;;5116643;27;20035;-81
2022/05/21 07:15:14;;;;;;;0.10;0.10;;;;;;;;;;5135410;27;20106;-83
2022/05/21 07:17:40;;;;;;;2.50;2.40;;;;;;;;;;5135424;27;20049;-80
2022/05/21 07:20:08;;;;;;;0.10;0.10;;;;;;;;;;5113492;27;20585;-82
2022/05/21 07:22:34;;;;;;;0.10;0.10;;;;;;;;;;5117236;27;20046;-86
2022/05/21 07:25:03;;;;;;;0.10;0.10;;;;;;;;;;5116367;27;20465;-79
2022/05/21 07:27:29;;;;;;;0.10;0.10;;;;;;;;;;5117062;27;20055;-82
2022/05/21 07:29:55;;;;;;;0.10;0.10;;;;;;;;;;5120416;27;20081;-78
2022/05/21 07:32:23;;;;;;;0.10;0.10;;;;;;;;;;5114323;27;20127;-80
2022/05/21 07:34:56;;;;;;;0.10;0.10;;;;;;;;;;5116562;27;20034;-80
2022/05/21 07:37:22;;;;;;;0.10;0.10;;;;;;;;;;5123701;27;20031;-82
2022/05/21 07:39:48;;;;;;;0.10;0.10;;;;;;;;;;5114724;28;20413;-84
2022/05/21 07:42:14;;;;;;;0.10;0.10;;;;;;;;;;5113830;28;20034;-81
2022/05/21 07:44:40;;;;;;;0.10;0.10;;;;;;;;;;5119667;27;20073;-81
2022/05/21 07:47:06;;;;;;;0.10;0.10;;;;;;;;;;5096049;28;20068;-82
2022/05/21 07:49:32;;;;;;;0.10;0.10;;;;;;;;;;5115443;27;20032;-83
2022/05/21 07:51:59;;;;;;;0.10;0.10;;;;;;;;;;5116817;27;20030;-80
2022/05/21 07:54:25;;;;;;;0.10;0.10;;;;;;;;;;5134855;27;20031;-87
2022/05/21 07:56:51;;;;;;;0.10;0.10;;;;;;;;;;5135608;27;20027;-88
2022/05/21 07:59:17;;;;;;;0.10;0.10;;;;;;;;;;5135359;27;20034;-85
2022/05/21 08:01:43;;;;;;;0.10;0.10;;;;;;;;;;5103231;28;20024;-84
2022/05/21 08:04:09;;;;;;;0.10;0.10;;;;;;;;;;5114938;28;20429;-84
2022/05/21 08:06:35;;;;;;;0.10;0.10;;;;;;;;;;5097054;28;20440;-89
2022/05/21 08:09:01;;;;;;;0.10;0.10;;;;;;;;;;5114579;28;20038;-82
2022/05/21 08:11:28;;;;;;;0.10;0.10;;;;;;;;;;5114880;28;20062;-85
2022/05/21 08:13:54;;;;;;;0.10;0.10;;;;;;;;;;5096077;28;20067;-87
2022/05/21 08:16:21;;;;;;;0.10;0.10;;;;;;;;;;5095968;28;20629;-87
2022/05/21 08:18:48;;;;;;;0.10;0.10;;;;;;;;;;5095833;27;20455;-82
2022/05/21 08:21:13;;;;;;;0.10;0.10;;;;;;;;;;5132273;27;20023;-84
2022/05/21 08:29:09;;;;;;;0.10;0.10;;;;;;;;;;5133559;27;20042;-82
2022/05/21 08:31:35;;;;;;;0.10;0.10;;;;;;;;;;5134458;27;20443;-83
2022/05/21 08:34:01;;;;;;;0.10;0.10;;;;;;;;;;5125851;27;20033;-79
2022/05/21 08:36:28;;;;;;;0.03;0.03;;;;;;;;;;5134389;27;20489;-82
2022/05/21 08:38:54;;;;;;;0.10;0.10;;;;;;;;;;5097239;28;20054;-84
2022/05/21 08:41:23;;;;;;;0.10;0.10;;;;;;;;;;5094762;28;20549;-74
2022/05/21 08:44:04;;;;;;;0.10;0.10;;;;;;;;;;5113149;28;20043;-76
2022/05/21 08:46:30;;;;;;;0.10;0.10;;;;;;;;;;5113059;27;20049;-76
2022/05/21 08:48:59;;;;;;;0.10;0.10;;;;;;;;;;5095322;28;20026;-73
2022/05/21 08:51:28;;;;;;;0.05;0.05;;;;;;;;;;5113368;28;20559;-74
2022/05/21 08:53:55;;;;;;;0.10;0.10;;;;;;;;;;5111867;28;20036;-73
2022/05/21 08:56:21;;;;;;;0.10;0.10;;;;;;;;;;5113140;28;20037;-73
2022/05/21 08:58:49;;;;;;;0.10;0.10;;;;;;;;;;5112941;28;20022;-74
2022/05/21 09:01:17;;;;;;;0.10;0.10;;;;;;;;;;5112677;28;20019;-74
2022/05/21 09:03:44;;;;;;;0.10;0.10;;;;;;;;;;5112818;28;20049;-74
2022/05/21 09:06:19;;;;;;;0.10;0.10;;;;;;;;;;5094316;28;20042;-75
2022/05/21 09:08:48;;;;;;;0.10;0.10;;;;;;;;;;5128250;27;20034;-76
2022/05/21 09:11:18;;;;;;;0.00;0.00;;;;;;;;;;5114494;27;20028;-75
2022/05/21 09:13:52;;;;;;;0.10;0.10;;;;;;;;;;5133076;27;20447;-75
2022/05/21 09:19:04;;;;;;;0.10;0.10;;;;;;;;;;5131185;27;20038;-74
2022/05/21 09:21:32;;;;;;;0.10;0.10;;;;;;;;;;5131726;27;20023;-74
2022/05/21 09:24:01;;;;;;;0.10;0.10;;;;;;;;;;5133282;27;20389;-74
2022/05/21 09:26:28;;;;;;;0.10;0.10;;;;;;;;;;5133209;27;20485;-76
2022/05/21 09:29:12;;;;;;;2.03;1.95;;;;;;;;;;5133197;27;20031;-77
2022/05/21 09:31:38;;;;;;;0.10;0.10;;;;;;;;;;5132952;27;20050;-77
2022/05/21 09:34:23;;;;;;;0.10;0.10;;;;;;;;;;5132535;27;20039;-74
2022/05/21 09:36:49;;;;;;;0.10;0.10;;;;;;;;;;5133107;27;20019;-76
2022/05/21 09:39:34;;;;;;;0.10;0.10;;;;;;;;;;5132391;27;20027;-74
2022/05/21 09:45:23;;;;;;;0.10;0.10;;;;;;;;;;5125354;27;20107;-76
2022/05/21 09:47:55;;;;;;;0.10;0.10;;;;;;;;;;5132674;27;20047;-76
2022/05/21 09:50:25;;;;;;;0.10;0.10;;;;;;;;;;5132377;27;20066;-77
2022/05/21 09:52:51;;;;;;;0.08;0.08;;;;;;;;;;5132784;27;20095;-76
2022/05/21 09:55:23;;;;;;;0.10;0.10;;;;;;;;;;5113800;27;20036;-74
2022/05/21 09:57:49;;;;;;;0.10;0.10;;;;;;;;;;5132330;27;20023;-73
2022/05/21 10:00:18;;;;;;;0.10;0.10;;;;;;;;;;5132180;27;20028;-75
2022/05/21 10:02:45;;;;;;;0.10;0.10;;;;;;;;;;5132365;27;20030;-75
2022/05/21 10:05:14;;;;;;;0.10;0.10;;;;;;;;;;5131751;27;20068;-75
2022/05/21 10:10:58;;;;;;;0.10;0.10;;;;;;;;;;5132377;27;20505;-75
2022/05/21 10:13:24;;;;;;;0.10;0.10;;;;;;;;;;5131992;27;20035;-76
2022/05/21 10:16:11;;;;;;;0.10;0.10;;;;;;;;;;5132231;27;20092;-75
2022/05/21 10:18:51;;;;;;;0.10;0.10;;;;;;;;;;5132002;27;20027;-76
2022/05/21 10:21:25;;;;;;;0.10;0.10;;;;;;;;;;5132020;28;20031;-75
2022/05/21 10:24:01;;;;;;;0.10;0.10;;;;;;;;;;5132187;28;20037;-74
2022/05/21 10:26:33;;;;;;;0.10;0.10;;;;;;;;;;5132505;28;20019;-74
2022/05/21 10:29:32;;;;;;;0.10;0.10;;;;;;;;;;5113993;28;20043;-74
2022/05/21 10:32:08;;;;;;;0.10;0.10;;;;;;;;;;5087369;28;20406;-76
2022/05/21 10:34:33;;;;;;;0.10;0.10;;;;;;;;;;5113633;28;20042;-75
2022/05/21 10:37:02;;;;;;;0.10;0.10;;;;;;;;;;5132341;28;20035;-74
2022/05/21 10:39:47;;;;;;;0.10;0.10;;;;;;;;;;5113822;28;20055;-77
2022/05/21 10:42:32;;;;;;;0.10;0.10;;;;;;;;;;5121679;28;20096;-77
2022/05/21 10:45:10;;;;;;;0.10;0.10;;;;;;;;;;5132097;28;20036;-77
2022/05/21 10:47:55;;;;;;;0.10;0.10;;;;;;;;;;5118120;28;20024;-75
2022/05/21 10:50:21;;;;;;;0.10;0.10;;;;;;;;;;5125625;28;20427;-77
2022/05/21 10:52:53;;;;;;;0.10;0.10;;;;;;;;;;5119958;28;20102;-77
2022/05/21 10:55:22;;;;;;;0.10;0.10;;;;;;;;;;5111728;28;20487;-80
2022/05/21 10:58:06;;;;;;;0.10;0.10;;;;;;;;;;5102050;28;20020;-79
2022/05/21 11:00:35;;;;;;;0.10;0.10;;;;;;;;;;5104000;28;20619;-79
2022/05/21 11:03:20;;;;;;;0.10;0.10;;;;;;;;;;5111527;28;20024;-80
2022/05/21 11:05:46;;;;;;;0.00;0.00;;;;;;;;;;5106477;28;20027;-79
2022/05/21 11:08:17;;;;;;;0.10;0.10;;;;;;;;;;5115154;28;20458;-79
2022/05/21 11:10:52;;;;;;;0.00;0.00;;;;;;;;;;5111574;28;20059;-80
2022/05/21 11:13:22;;;;;;;0.10;0.10;;;;;;;;;;5111517;28;20032;-80
2022/05/21 11:15:50;;;;;;;0.10;0.10;;;;;;;;;;5111050;28;20032;-80
2022/05/21 11:18:19;;;;;;;0.10;0.10;;;;;;;;;;5113331;28;20068;-79
2022/05/21 11:21:00;;;;;;;0.10;0.10;;;;;;;;;;5115109;28;20027;-81
2022/05/21 11:23:49;;;;;;;0.00;0.00;;;;;;;;;;5096588;28;20030;-80
2022/05/21 11:26:24;;;;;;;0.10;0.10;;;;;;;;;;5117447;27;20024;-80
2022/05/21 11:28:53;;;;;;;0.10;0.10;;;;;;;;;;5100732;28;20028;-79
2022/05/21 11:37:19;;;;;;;0.10;0.10;;;;;;;;;;5110961;28;20022;-81
2022/05/21 11:39:35;;;;;;;0.10;0.10;;;;;;;;;;5135915;27;20046;-80
2022/05/21 11:42:07;;;;;;;0.10;0.10;;;;;;;;;;5103148;28;20028;-80
2022/05/21 11:45:01;;;;;;;0.10;0.10;;;;;;;;;;5127119;27;20027;-80
2022/05/21 11:47:27;;;;;;;0.08;0.08;;;;;;;;;;5077127;28;20491;-81
2022/05/21 11:49:56;;;;;;;0.10;0.10;;;;;;;;;;5094090;28;20028;-80
2022/05/21 11:52:28;;;;;;;0.10;0.10;;;;;;;;;;5075797;28;20031;-80
2022/05/21 11:54:54;;;;;;;0.10;0.10;;;;;;;;;;5094140;28;20058;-80
2022/05/21 11:57:39;;;;;;;0.10;0.10;;;;;;;;;;5103447;27;20363;-80
2022/05/21 12:00:07;;;;;;;0.10;0.10;;;;;;;;;;5102887;27;20035;-79
2022/05/21 12:02:38;;;;;;;0.10;0.10;;;;;;;;;;5119410;27;20023;-80
2022/05/21 12:05:05;;;;;;;0.10;0.10;;;;;;;;;;5120545;27;20401;-81
2022/05/21 12:07:48;;;;;;;0.10;0.10;;;;;;;;;;5135303;27;20020;-80
2022/05/21 12:10:50;;;;;;;0.10;0.10;;;;;;;;;;5115773;27;20118;-79
2022/05/21 12:13:16;;;;;;;0.10;0.10;;;;;;;;;;5087807;27;20061;-79
2022/05/21 12:15:53;;;;;;;0.10;0.10;;;;;;;;;;5118849;27;20086;-80
2022/05/21 12:18:28;;;;;;;20.42;18.83;;;;;;;;;;5114225;28;20097;-80
2022/05/21 12:20:54;;;;;;;0.10;0.10;;;;;;;;;;5105194;28;20110;-79
2022/05/21 12:23:32;;;;;;;0.10;0.10;;;;;;;;;;5118770;27;20027;-81
2022/05/21 12:26:06;;;;;;;0.10;0.10;;;;;;;;;;5129768;27;20046;-79
2022/05/21 12:28:35;;;;;;;0.10;0.10;;;;;;;;;;5114168;28;20534;-80
2022/05/21 12:31:03;;;;;;;0.10;0.10;;;;;;;;;;5127984;27;20027;-80
2022/05/21 12:33:38;;;;;;;0.10;0.10;;;;;;;;;;5131167;27;20461;-79
2022/05/21 12:36:07;;;;;;;0.10;0.10;;;;;;;;;;5129296;27;20050;-79
2022/05/21 12:38:38;;;;;;;0.10;0.10;;;;;;;;;;5119228;27;20043;-79
2022/05/21 12:41:04;;;;;;;0.10;0.10;;;;;;;;;;5089967;28;20467;-80
2022/05/21 12:43:41;;;;;;;0.10;0.10;;;;;;;;;;5110853;28;20031;-80
2022/05/21 12:46:17;;;;;;;0.10;0.10;;;;;;;;;;5113720;27;20030;-80
2022/05/21 12:48:44;;;;;;;0.10;0.10;;;;;;;;;;5116057;27;20057;-80
2022/05/21 12:51:11;;;;;;;0.10;0.10;;;;;;;;;;5117779;27;20016;-81
2022/05/21 12:53:46;;;;;;;0.10;0.10;;;;;;;;;;5117657;27;20035;-80
2022/05/21 12:56:15;;;;;;;0.10;0.10;;;;;;;;;;5121515;27;20066;-80
2022/05/21 12:58:41;;;;;;;0.10;0.10;;;;;;;;;;5117205;27;20107;-82
2022/05/21 13:01:07;;;;;;;0.10;0.10;;;;;;;;;;5114689;27;20102;-80
2022/05/21 13:03:35;;;;;;;0.10;0.10;;;;;;;;;;5112287;28;20066;-81
2022/05/21 13:06:04;;;;;;;0.10;0.10;;;;;;;;;;5112214;27;20035;-81
2022/05/21 13:08:31;;;;;;;0.10;0.10;;;;;;;;;;5093823;28;20383;-80
2022/05/21 13:11:28;;;;;;;0.10;0.10;;;;;;;;;;5093392;28;20362;-80
2022/05/21 13:13:59;;;;;;;0.10;0.10;;;;;;;;;;5085754;28;20513;-80
2022/05/21 13:16:26;;;;;;;0.10;0.10;;;;;;;;;;5112338;27;20107;-80
2022/05/21 13:19:10;;;;;;;0.10;0.10;;;;;;;;;;5111624;28;20020;-80
2022/05/21 13:21:46;;;;;;;0.10;0.10;;;;;;;;;;5098401;27;20115;-79
2022/05/21 13:24:15;;;;;;;0.10;0.10;;;;;;;;;;5108700;28;20016;-79
2022/05/21 13:26:41;;;;;;;0.10;0.10;;;;;;;;;;5113874;27;20023;-77
2022/05/21 13:29:39;;;;;;;0.10;0.10;;;;;;;;;;5116529;27;20080;-80
2022/05/21 13:32:24;;;;;;;0.00;0.00;;;;;;;;;;5049201;28;20477;-80
2022/05/21 13:34:51;;;;;;;0.10;0.10;;;;;;;;;;5114351;27;20035;-81
2022/05/21 13:37:17;;;;;;;0.10;0.10;;;;;;;;;;5093545;28;20022;-81
2022/05/21 13:39:56;;;;;;;0.10;0.10;;;;;;;;;;5093757;28;20040;-81
2022/05/21 13:42:22;;;;;;;0.10;0.10;;;;;;;;;;5091702;28;20024;-81
2022/05/21 13:44:50;;;;;;;0.10;0.10;;;;;;;;;;5110905;28;20136;-80
2022/05/21 13:47:26;;;;;;;0.10;0.10;;;;;;;;;;5123347;27;20035;-81
2022/05/21 13:49:53;;;;;;;0.10;0.10;;;;;;;;;;5120210;27;20076;-80
2022/05/21 13:52:20;;;;;;;0.10;0.10;;;;;;;;;;5122418;27;20030;-80
2022/05/21 13:54:47;;;;;;;0.10;0.10;;;;;;;;;;5103612;27;20034;-81
2022/05/21 13:57:27;;;;;;;0.10;0.10;;;;;;;;;;5121234;27;20474;-79
2022/05/21 14:00:00;;;;;;;0.10;0.10;;;;;;;;;;5119374;27;20034;-78
2022/05/21 14:02:29;;;;;;;0.10;0.10;;;;;;;;;;5131404;27;20027;-78
2022/05/21 14:04:56;;;;;;;0.10;0.10;;;;;;;;;;5121409;27;20070;-77
2022/05/21 14:07:44;;;;;;;0.10;0.10;;;;;;;;;;5111299;27;20023;-78
2022/05/21 14:10:11;;;;;;;0.10;0.10;;;;;;;;;;5116962;27;20031;-78
2022/05/21 14:12:44;;;;;;;0.10;0.10;;;;;;;;;;5115646;27;20016;-78
2022/05/21 14:15:10;;;;;;;0.10;0.10;;;;;;;;;;5100380;27;20481;-78
2022/05/21 14:17:41;;;;;;;0.10;0.10;;;;;;;;;;5104133;28;20030;-78
2022/05/21 14:20:20;;;;;;;0.10;0.10;;;;;;;;;;5124474;28;20029;-78
2022/05/21 14:22:47;;;;;;;0.10;0.10;;;;;;;;;;5124176;28;20062;-79
2022/05/21 14:25:24;;;;;;;0.10;0.10;;;;;;;;;;5128422;28;20031;-78
2022/05/21 14:27:55;;;;;;;0.10;0.10;;;;;;;;;;5131838;28;20016;-78
2022/05/21 14:30:52;;;;;;;0.10;0.10;;;;;;;;;;5131054;28;20022;-79
2022/05/21 14:33:18;;;;;;;;;;;;;;;;;;5100244;28;20035;-79
2022/05/21 14:35:44;;;;;;;;;;;;;;;;;;5115695;28;19970;-80
2022/05/21 14:38:10;;;;;;;;;;;;;;;;;;5113012;28;19950;-79
2022/05/21 14:40:53;;;;;;;0.10;0.10;;;;;;;;;;5110649;28;20346;-78
2022/05/21 14:43:31;;;;;;;0.10;0.10;;;;;;;;;;5111859;28;20536;-78
2022/05/21 14:45:57;;;;;;;0.10;0.10;;;;;;;;;;5113134;28;20023;-79
2022/05/21 14:48:23;;;;;;;0.10;0.10;;;;;;;;;;5092998;28;20031;-79
2022/05/21 14:53:37;;;;;;;0.10;0.10;;;;;;;;;;5133198;27;20585;-79
2022/05/21 14:56:04;;;;;;;0.10;0.10;;;;;;;;;;5134183;27;20031;-80
2022/05/21 14:58:30;;;;;;;0.00;0.00;;;;;;;;;;5135334;27;20053;-79
2022/05/21 15:00:56;;;;;;;0.10;0.10;;;;;;;;;;5116239;27;20375;-79
2022/05/21 15:03:22;;;;;;;0.10;0.10;;;;;;;;;;5107690;27;20027;-79
2022/05/21 15:05:49;;;;;;;0.00;0.00;;;;;;;;;;5134848;27;20414;-81
2022/05/21 15:08:18;;;;;;;0.10;0.10;;;;;;;;;;5121779;27;20034;-80
2022/05/21 15:10:44;;;;;;;0.10;0.10;;;;;;;;;;5124680;27;20027;-81
2022/05/21 15:13:10;;;;;;;0.10;0.10;;;;;;;;;;5130717;27;20116;-79
2022/05/21 15:15:36;;;;;;;0.10;0.10;;;;;;;;;;5117280;27;20044;-79
2022/05/21 15:18:02;;;;;;;0.10;0.10;;;;;;;;;;5121966;27;20030;-79
2022/05/21 15:20:28;;;;;;;0.10;0.10;;;;;;;;;;5112025;27;20034;-79
2022/05/21 15:22:54;;;;;;;0.10;0.10;;;;;;;;;;5127186;27;20091;-78
2022/05/21 15:25:22;;;;;;;0.10;0.10;;;;;;;;;;5132781;27;20027;-79
2022/05/21 15:27:50;;;;;;;0.10;0.10;;;;;;;;;;5132779;27;20029;-78
2022/05/21 15:30:18;;;;;;;0.10;0.10;;;;;;;;;;5134306;27;20068;-78
2022/05/21 15:32:44;;;;;;;0.10;0.10;;;;;;;;;;5102761;28;20119;-78
2022/05/21 15:35:12;;;;;;;0.10;0.10;;;;;;;;;;5119150;27;20050;-79